| time (UTC) | temp C | wind direction | speed KPH | gust KPH | rain 1hr cm | rain 24hr cm | rain mn cm | humidity % | barometer mb |
| 20260906114031 | 31 | 185 | 1.6 | 4.8 | 0.00 | 0.00 | 0.00 | 61 | 1019.3 |
| 20260906113531 | 30 | 41 | 0.0 | 6.4 | 0.00 | 0.00 | 0.00 | 62 | 1019.3 |
| 20260906113043 | 31 | 141 | 1.6 | 6.4 | 0.00 | 0.00 | 0.00 | 61 | 1019.3 |
| 20260906112529 | 30 | 55 | 1.6 | 6.4 | 0.00 | 0.00 | 0.00 | 63 | 1019.3 |
| 20260906112030 | 30 | 134 | 1.6 | 9.7 | 0.00 | 0.00 | 0.00 | 63 | 1019.4 |
| 20260906111530 | 31 | 119 | 1.6 | 8.0 | 0.00 | 0.00 | 0.00 | 60 | 1019.3 |
| 20260906111028 | 30 | 103 | 1.6 | 6.4 | 0.00 | 0.00 | 0.00 | 64 | 1019.5 |
| 20260906110528 | 30 | 131 | 3.2 | 6.4 | 0.00 | 0.00 | 0.00 | 63 | 1019.5 |
| 20260906110028 | 30 | 207 | 3.2 | 8.0 | 0.00 | 0.00 | 0.00 | 64 | 1019.5 |
| 20260906105527 | 30 | 86 | 1.6 | 8.0 | 0.00 | 0.00 | 0.00 | 64 | 1019.5 |
| 20260906105031 | 30 | 360 | 1.6 | 8.0 | 0.00 | 0.00 | 0.00 | 61 | 1019.5 |
| 20260906104530 | 30 | 99 | 3.2 | 8.0 | 0.00 | 0.00 | 0.00 | 61 | 1019.6 |
| 20260906104027 | 30 | 154 | 1.6 | 6.4 | 0.00 | 0.00 | 0.00 | 62 | 1019.6 |
| 20260906103527 | 30 | 63 | 3.2 | 6.4 | 0.00 | 0.00 | 0.00 | 64 | 1019.6 |
| 20260906103025 | 30 | 98 | 1.6 | 8.0 | 0.00 | 0.00 | 0.00 | 60 | 1019.6 |
| 20260906102524 | 30 | 130 | 0.0 | 8.0 | 0.00 | 0.00 | 0.00 | 61 | 1019.7 |
| 20260906102028 | 30 | 355 | 1.6 | 9.7 | 0.00 | 0.00 | 0.00 | 62 | 1019.7 |
| 20260906101523 | 30 | 126 | 1.6 | 6.4 | 0.00 | 0.00 | 0.00 | 60 | 1019.7 |
| 20260906101021 | 30 | 128 | 1.6 | 9.7 | 0.00 | 0.00 | 0.00 | 61 | 1019.7 |
| 20260906100521 | 30 | 149 | 3.2 | 11.3 | 0.00 | 0.00 | 0.00 | 61 | 1019.6 |
| 20260906100021 | 30 | 39 | 1.6 | 11.3 | 0.00 | 0.00 | 0.00 | 62 | 1019.7 |
| 20260906095519 | 29 | 73 | 1.6 | 12.9 | 0.00 | 0.00 | 0.00 | 61 | 1019.8 |
| 20260906095018 | 29 | 98 | 3.2 | 12.9 | 0.00 | 0.00 | 0.00 | 61 | 1019.8 |
| 20260906094518 | 29 | 40 | 3.2 | 11.3 | 0.00 | 0.00 | 0.00 | 63 | 1019.9 |
| 20260906094016 | 29 | 89 | 3.2 | 9.7 | 0.00 | 0.00 | 0.00 | 62 | 1019.9 |
| 20260906093518 | 29 | 45 | 3.2 | 11.3 | 0.00 | 0.00 | 0.00 | 63 | 1019.9 |
| 20260906093014 | 29 | 57 | 3.2 | 11.3 | 0.00 | 0.00 | 0.00 | 63 | 1019.9 |
| 20260906092514 | 29 | 83 | 3.2 | 11.3 | 0.00 | 0.00 | 0.00 | 63 | 1019.9 |
| 20260906092016 | 28 | 183 | 1.6 | 9.7 | 0.00 | 0.00 | 0.00 | 64 | 1019.9 |
| 20260906091524 | 28 | 129 | 3.2 | 9.7 | 0.00 | 0.00 | 0.00 | 63 | 1019.9 |
| 20260906091010 | 28 | 5 | 3.2 | 14.5 | 0.00 | 0.00 | 0.00 | 64 | 1019.9 |
| 20260906090509 | 28 | 30 | 4.8 | 14.5 | 0.00 | 0.00 | 0.00 | 63 | 1019.9 |
| 20260906090008 | 28 | 355 | 1.6 | 9.7 | 0.00 | 0.00 | 0.00 | 65 | 1019.9 |
| 20260906085509 | 28 | 321 | 3.2 | 12.9 | 0.00 | 0.00 | 0.00 | 65 | 1019.9 |
| 20260906085006 | 28 | 5 | 3.2 | 12.9 | 0.00 | 0.00 | 0.00 | 63 | 1019.9 |
| 20260906084505 | 28 | 51 | 1.6 | 9.7 | 0.00 | 0.00 | 0.00 | 64 | 1019.9 |
| 20260906084007 | 27 | 126 | 3.2 | 12.9 | 0.00 | 0.00 | 0.00 | 64 | 1019.9 |
| 20260906083502 | 27 | 119 | 3.2 | 12.9 | 0.00 | 0.00 | 0.00 | 64 | 1019.9 |
| 20260906083101 | 28 | 77 | 1.6 | 11.3 | 0.00 | 0.00 | 0.00 | 64 | 1019.9 |
| 20260906082559 | 27 | 67 | 3.2 | 16.1 | 0.00 | 0.00 | 0.00 | 65 | 1019.8 |
| 20260906082058 | 27 | 21 | 4.8 | 16.1 | 0.00 | 0.00 | 0.00 | 65 | 1019.9 |
| 20260906081607 | 27 | 65 | 3.2 | 11.3 | 0.00 | 0.00 | 0.00 | 65 | 1019.9 |
| 20260906081057 | 27 | 19 | 3.2 | 12.9 | 0.00 | 0.00 | 0.00 | 66 | 1019.8 |
| 20260906080554 | 27 | 5 | 3.2 | 14.5 | 0.00 | 0.00 | 0.00 | 65 | 1019.8 |
| 20260906080053 | 26 | 355 | 4.8 | 19.3 | 0.00 | 0.00 | 0.00 | 66 | 1019.8 |
| 20260906075552 | 26 | 86 | 6.4 | 19.3 | 0.00 | 0.00 | 0.00 | 65 | 1019.8 |
| 20260906075050 | 26 | 96 | 3.2 | 14.5 | 0.00 | 0.00 | 0.00 | 67 | 1019.8 |
| 20260906074607 | 26 | 40 | 6.4 | 14.5 | 0.00 | 0.00 | 0.00 | 69 | 1019.7 |
| 20260906074048 | 26 | 109 | 4.8 | 16.1 | 0.00 | 0.00 | 0.00 | 69 | 1019.7 |
| 20260906073547 | 26 | 355 | 8.0 | 17.7 | 0.00 | 0.00 | 0.00 | 69 | 1019.6 |
| 20260906073045 | 26 | 14 | 8.0 | 17.7 | 0.00 | 0.00 | 0.00 | 69 | 1019.5 |
| 20260906072544 | 26 | 17 | 6.4 | 16.1 | 0.00 | 0.00 | 0.00 | 69 | 1019.5 |
| 20260906072045 | 26 | 5 | 3.2 | 12.9 | 0.00 | 0.00 | 0.00 | 70 | 1019.5 |
| 20260906071541 | 25 | 346 | 4.8 | 12.9 | 0.00 | 0.00 | 0.00 | 71 | 1019.5 |
| 20260906071040 | 25 | 15 | 4.8 | 14.5 | 0.00 | 0.00 | 0.00 | 71 | 1019.5 |
| 20260906070538 | 25 | 360 | 4.8 | 11.3 | 0.00 | 0.00 | 0.00 | 71 | 1019.4 |
| 20260906070037 | 25 | 11 | 3.2 | 9.7 | 0.00 | 0.00 | 0.00 | 71 | 1019.4 |
| 20260906065537 | 25 | 16 | 0.0 | 8.0 | 0.00 | 0.00 | 0.00 | 73 | 1019.5 |
| 20260906065037 | 25 | 12 | 3.2 | 9.7 | 0.00 | 0.00 | 0.00 | 73 | 1019.4 |
| 20260906064534 | 25 | 9 | 3.2 | 9.7 | 0.00 | 0.00 | 0.00 | 72 | 1019.3 |
| 20260906064032 | 24 | 66 | 3.2 | 8.0 | 0.00 | 0.00 | 0.00 | 73 | 1019.3 |
| 20260906063532 | 24 | 11 | 3.2 | 8.0 | 0.00 | 0.00 | 0.00 | 74 | 1019.3 |
| 20260906063030 | 24 | 43 | 1.6 | 6.4 | 0.00 | 0.00 | 0.00 | 74 | 1019.2 |
| 20260906062529 | 24 | 17 | 1.6 | 4.8 | 0.00 | 0.00 | 0.00 | 75 | 1019.2 |
| 20260906062030 | 23 | 61 | 1.6 | 6.4 | 0.00 | 0.00 | 0.00 | 76 | 1019.1 |
| 20260906061526 | 23 | 11 | 3.2 | 8.0 | 0.00 | 0.00 | 0.00 | 76 | 1019.0 |
| 20260906061024 | 23 | 34 | 3.2 | 8.0 | 0.00 | 0.00 | 0.00 | 76 | 1018.9 |
| 20260906060523 | 23 | 23 | 3.2 | 8.0 | 0.00 | 0.00 | 0.00 | 77 | 1018.8 |
| 20260906060027 | 23 | 26 | 0.0 | 6.4 | 0.00 | 0.00 | 0.00 | 78 | 1018.7 |
| 20260906055520 | 23 | 5 | 1.6 | 8.0 | 0.00 | 0.00 | 0.00 | 78 | 1018.7 |
| 20260906055019 | 22 | 17 | 3.2 | 8.0 | 0.00 | 0.00 | 0.00 | 78 | 1018.7 |
| 20260906054522 | 22 | 5 | 3.2 | 8.0 | 0.00 | 0.00 | 0.00 | 78 | 1018.6 |
| 20260906054017 | 22 | 360 | 1.6 | 8.0 | 0.00 | 0.00 | 0.00 | 78 | 1018.5 |
| 20260906053516 | 22 | 15 | 1.6 | 9.7 | 0.00 | 0.00 | 0.00 | 79 | 1018.4 |
| 20260906053021 | 22 | 32 | 1.6 | 9.7 | 0.00 | 0.00 | 0.00 | 79 | 1018.3 |
| 20260906052514 | 22 | 34 | 1.6 | 9.7 | 0.00 | 0.00 | 0.00 | 79 | 1018.3 |
| 20260906052014 | 22 | 26 | 3.2 | 9.7 | 0.00 | 0.00 | 0.00 | 79 | 1018.3 |
| 20260906051516 | 22 | 348 | 3.2 | 8.0 | 0.00 | 0.00 | 0.00 | 79 | 1018.3 |
| 20260906051012 | 22 | 360 | 3.2 | 12.9 | 0.00 | 0.00 | 0.00 | 78 | 1018.3 |
| 20260906050512 | 22 | 38 | 3.2 | 12.9 | 0.00 | 0.00 | 0.00 | 78 | 1018.2 |
| 20260906050028 | 22 | 43 | 3.2 | 9.7 | 0.00 | 0.00 | 0.00 | 78 | 1018.2 |
| 20260906045510 | 22 | 58 | 1.6 | 9.7 | 0.00 | 0.00 | 0.00 | 78 | 1018.1 |
| 20260906045009 | 22 | 13 | 3.2 | 9.7 | 0.00 | 0.00 | 0.00 | 78 | 1018.1 |
| 20260906044512 | 22 | 40 | 3.2 | 8.0 | 0.00 | 0.00 | 0.00 | 78 | 1018.1 |
| 20260906044011 | 22 | 69 | 3.2 | 16.1 | 0.00 | 0.00 | 0.00 | 78 | 1017.9 |
| 20260906043508 | 22 | 29 | 3.2 | 16.1 | 0.00 | 0.00 | 0.00 | 78 | 1017.9 |
| 20260906043008 | 22 | 5 | 4.8 | 9.7 | 0.00 | 0.00 | 0.00 | 78 | 1017.9 |
| 20260906042506 | 22 | 5 | 3.2 | 8.0 | 0.00 | 0.00 | 0.00 | 79 | 1017.9 |
| 20260906042006 | 22 | 14 | 1.6 | 8.0 | 0.00 | 0.00 | 0.00 | 79 | 1017.8 |
| 20260906041512 | 22 | 20 | 3.2 | 8.0 | 0.00 | 0.00 | 0.00 | 79 | 1017.8 |
| 20260906041006 | 22 | 17 | 3.2 | 8.0 | 0.00 | 0.00 | 0.00 | 79 | 1017.8 |
| 20260906040508 | 22 | 22 | 1.6 | 6.4 | 0.00 | 0.00 | 0.00 | 79 | 1017.8 |
| 20260906040005 | 22 | 30 | 1.6 | 8.0 | 0.00 | 0.00 | 0.00 | 79 | 1017.7 |
| 20260906035504 | 22 | 21 | 1.6 | 9.7 | 0.00 | 0.00 | 0.00 | 79 | 1017.6 |
| 20260906035003 | 22 | 336 | 3.2 | 12.9 | 0.00 | 0.00 | 0.00 | 79 | 1017.5 |
| 20260906034503 | 22 | 24 | 4.8 | 12.9 | 0.00 | 0.00 | 0.00 | 80 | 1017.5 |
| 20260906034002 | 23 | 23 | 3.2 | 9.7 | 0.00 | 0.00 | 0.00 | 80 | 1017.5 |
| 20260906033502 | 23 | 360 | 3.2 | 9.7 | 0.00 | 0.00 | 0.00 | 80 | 1017.4 |
| 20260906033101 | 23 | 36 | 1.6 | 12.9 | 0.00 | 0.00 | 0.00 | 80 | 1017.4 |
| 20260906032600 | 23 | 29 | 1.6 | 12.9 | 0.00 | 0.00 | 0.00 | 80 | 1017.4 |
| 20260906032100 | 23 | 25 | 4.8 | 9.7 | 0.00 | 0.00 | 0.00 | 80 | 1017.3 |
| 20260906031604 | 23 | 19 | 1.6 | 9.7 | 0.00 | 0.00 | 0.00 | 80 | 1017.3 |
| 20260906031100 | 23 | 24 | 3.2 | 9.7 | 0.00 | 0.00 | 0.00 | 80 | 1017.3 |
| 20260906030559 | 23 | 38 | 1.6 | 9.7 | 0.00 | 0.00 | 0.00 | 81 | 1017.3 |
| 20260906030058 | 23 | 93 | 1.6 | 8.0 | 0.00 | 0.00 | 0.00 | 81 | 1017.2 |
| 20260906025558 | 23 | 5 | 1.6 | 8.0 | 0.00 | 0.00 | 0.00 | 82 | 1017.2 |
| 20260906025058 | 23 | 11 | 1.6 | 9.7 | 0.00 | 0.00 | 0.00 | 83 | 1017.2 |
| 20260906024558 | 23 | 51 | 1.6 | 9.7 | 0.00 | 0.00 | 0.00 | 84 | 1017.1 |
| 20260906024056 | 23 | 14 | 3.2 | 9.7 | 0.00 | 0.00 | 0.00 | 85 | 1017.1 |
| 20260906023556 | 23 | 26 | 1.6 | 8.0 | 0.00 | 0.00 | 0.00 | 86 | 1017.1 |
| 20260906023055 | 23 | 40 | 1.6 | 9.7 | 0.00 | 0.00 | 0.00 | 87 | 1017.1 |
| 20260906022554 | 23 | 117 | 1.6 | 9.7 | 0.00 | 0.00 | 0.00 | 88 | 1017.1 |
| 20260906022056 | 23 | 51 | 1.6 | 14.5 | 0.00 | 0.00 | 0.00 | 88 | 1017.1 |
| 20260906021554 | 23 | 15 | 3.2 | 14.5 | 0.00 | 0.00 | 0.00 | 89 | 1017.0 |
| 20260906021054 | 23 | 19 | 6.4 | 12.9 | 0.00 | 0.00 | 0.00 | 89 | 1017.1 |
| 20260906020552 | 23 | 5 | 4.8 | 9.7 | 0.00 | 0.00 | 0.00 | 89 | 1017.0 |
| 20260906020100 | 23 | 11 | 4.8 | 12.9 | 0.00 | 0.00 | 0.00 | 89 | 1017.0 |
| 20260906015552 | 23 | 360 | 4.8 | 9.7 | 0.00 | 0.00 | 0.00 | 89 | 1017.0 |
| 20260906015053 | 23 | 360 | 3.2 | 14.5 | 0.00 | 0.00 | 0.00 | 89 | 1017.0 |
| 20260906014552 | 23 | 23 | 4.8 | 14.5 | 0.00 | 0.00 | 0.00 | 89 | 1017.0 |
| 20260906014052 | 23 | 17 | 3.2 | 12.9 | 0.00 | 0.00 | 0.00 | 89 | 1017.0 |
| 20260906013555 | 23 | 10 | 3.2 | 12.9 | 0.00 | 0.00 | 0.00 | 89 | 1017.0 |
| 20260906013051 | 23 | 327 | 4.8 | 14.5 | 0.00 | 0.00 | 0.00 | 89 | 1017.0 |
| 20260906012551 | 23 | 22 | 3.2 | 14.5 | 0.00 | 0.00 | 0.00 | 89 | 1016.9 |
| 20260906012050 | 23 | 9 | 4.8 | 9.7 | 0.00 | 0.00 | 0.00 | 90 | 1017.0 |
| 20260906011550 | 23 | 360 | 4.8 | 12.9 | 0.00 | 0.00 | 0.00 | 90 | 1017.1 |
| 20260906011049 | 23 | 355 | 3.2 | 12.9 | 0.00 | 0.00 | 0.00 | 90 | 1016.9 |
| 20260906010549 | 24 | 51 | 3.2 | 12.9 | 0.00 | 0.00 | 0.00 | 90 | 1016.9 |
| 20260906010049 | 24 | 24 | 4.8 | 12.9 | 0.00 | 0.00 | 0.00 | 90 | 1016.8 |
| 20260906005549 | 24 | 15 | 3.2 | 12.9 | 0.00 | 0.00 | 0.00 | 90 | 1016.8 |
| 20260906005050 | 24 | 15 | 4.8 | 12.9 | 0.00 | 0.00 | 0.00 | 90 | 1016.8 |
| 20260906004549 | 24 | 17 | 4.8 | 12.9 | 0.00 | 0.00 | 0.00 | 90 | 1016.8 |
| 20260906004048 | 24 | 5 | 4.8 | 12.9 | 0.00 | 0.00 | 0.00 | 91 | 1016.8 |
| 20260906003549 | 24 | 22 | 3.2 | 9.7 | 0.00 | 0.00 | 0.00 | 91 | 1016.8 |
| 20260906003048 | 24 | 348 | 3.2 | 14.5 | 0.00 | 0.00 | 0.00 | 91 | 1016.8 |
| 20260906002548 | 24 | 360 | 3.2 | 14.5 | 0.00 | 0.00 | 0.00 | 91 | 1016.8 |
| 20260906002048 | 24 | 340 | 4.8 | 9.7 | 0.00 | 0.00 | 0.00 | 91 | 1016.8 |
| 20260906001547 | 24 | 26 | 3.2 | 8.0 | 0.00 | 0.00 | 0.00 | 90 | 1016.9 |
| 20260906001048 | 24 | 34 | 1.6 | 6.4 | 0.00 | 0.00 | 0.00 | 90 | 1016.9 |
| 20260906000547 | 24 | 5 | 1.6 | 6.4 | 0.00 | 0.00 | 0.00 | 90 | 1017.0 |
| 20260906000047 | 24 | 9 | 1.6 | 8.0 | 0.00 | 0.00 | 0.00 | 90 | 1017.0 |
| 20260905235546 | 24 | 5 | 3.2 | 9.7 | 0.00 | 0.00 | 0.00 | 90 | 1017.0 |
| 20260905235048 | 23 | 22 | 3.2 | 12.9 | 0.00 | 0.00 | 0.00 | 90 | 1017.0 |
| 20260905234546 | 23 | 26 | 1.6 | 12.9 | 0.00 | 0.00 | 0.00 | 90 | 1016.9 |
| 20260905234045 | 23 | 40 | 3.2 | 8.0 | 0.00 | 0.00 | 0.00 | 90 | 1016.9 |
| 20260905233545 | 24 | 24 | 1.6 | 6.4 | 0.00 | 0.00 | 0.00 | 90 | 1016.9 |
| 20260905233048 | 23 | 32 | 1.6 | 6.4 | 0.00 | 0.00 | 0.00 | 90 | 1016.8 |
| 20260905232544 | 23 | 16 | 3.2 | 4.8 | 0.00 | 0.00 | 0.00 | 90 | 1016.7 |
| 20260905232044 | 23 | 17 | 1.6 | 4.8 | 0.00 | 0.00 | 0.00 | 90 | 1016.7 |
| 20260905231544 | 23 | 26 | 0.0 | 1.6 | 0.00 | 0.00 | 0.00 | 90 | 1016.7 |
| 20260905231043 | 23 | 26 | 0.0 | 4.8 | 0.00 | 0.00 | 0.00 | 90 | 1016.7 |
| 20260905230543 | 23 | 27 | 0.0 | 4.8 | 0.00 | 0.00 | 0.00 | 90 | 1016.6 |
| 20260905230049 | 23 | 26 | 0.0 | 3.2 | 0.00 | 0.00 | 0.00 | 91 | 1016.6 |
| 20260905225541 | 23 | 26 | 0.0 | 3.2 | 0.00 | 0.00 | 0.00 | 91 | 1016.5 |
| 20260905225043 | 23 | 27 | 0.0 | 4.8 | 0.00 | 0.00 | 0.00 | 91 | 1016.5 |
| 20260905224558 | 23 | 28 | 0.0 | 4.8 | 0.00 | 0.00 | 0.00 | 91 | 1016.4 |
| 20260905224040 | 23 | 32 | 1.6 | 6.4 | 0.00 | 0.00 | 0.00 | 91 | 1016.5 |
| 20260905223540 | 23 | 26 | 1.6 | 4.8 | 0.00 | 0.00 | 0.00 | 91 | 1016.4 |
| 20260905223039 | 23 | 38 | 0.0 | 6.4 | 0.00 | 0.00 | 0.00 | 91 | 1016.3 |
| 20260905222539 | 23 | 40 | 1.6 | 8.0 | 0.00 | 0.00 | 0.00 | 91 | 1016.3 |
| 20260905222038 | 23 | 23 | 3.2 | 8.0 | 0.00 | 0.00 | 0.00 | 91 | 1016.3 |
| 20260905221552 | 23 | 85 | 0.0 | 3.2 | 0.00 | 0.00 | 0.00 | 91 | 1016.3 |
| 20260905221038 | 23 | 85 | 0.0 | 3.2 | 0.00 | 0.00 | 0.00 | 91 | 1016.3 |
| 20260905220537 | 24 | 86 | 0.0 | 3.2 | 0.00 | 0.00 | 0.00 | 91 | 1016.2 |
| 20260905220040 | 24 | 93 | 0.0 | 3.2 | 0.00 | 0.00 | 0.00 | 91 | 1016.2 |
| 20260905215536 | 24 | 121 | 0.0 | 1.6 | 0.00 | 0.00 | 0.00 | 91 | 1016.2 |
| 20260905215035 | 24 | 121 | 0.0 | 1.6 | 0.00 | 0.00 | 0.00 | 90 | 1016.1 |
| 20260905214534 | 24 | 121 | 0.0 | 1.6 | 0.00 | 0.00 | 0.00 | 90 | 1016.1 |
| 20260905214034 | 24 | 121 | 0.0 | 3.2 | 0.00 | 0.00 | 0.00 | 90 | 1015.9 |
| 20260905213534 | 24 | 121 | 0.0 | 3.2 | 0.00 | 0.00 | 0.00 | 89 | 1015.8 |
| 20260905213033 | 24 | 121 | 0.0 | 0.0 | 0.00 | 0.00 | 0.00 | 88 | 1015.8 |
| 20260905212533 | 25 | 121 | 0.0 | 0.0 | 0.00 | 0.00 | 0.00 | 88 | 1015.7 |
| 20260905212032 | 25 | 121 | 0.0 | 0.0 | 0.00 | 0.00 | 0.00 | 88 | 1015.7 |
| 20260905211532 | 25 | 121 | 0.0 | 0.0 | 0.00 | 0.00 | 0.00 | 88 | 1015.7 |
| 20260905211031 | 25 | 121 | 0.0 | 0.0 | 0.00 | 0.00 | 0.00 | 87 | 1015.7 |
| 20260905210532 | 25 | 121 | 0.0 | 0.0 | 0.00 | 0.00 | 0.00 | 87 | 1015.6 |
| 20260905210031 | 25 | 121 | 0.0 | 0.0 | 0.00 | 0.00 | 0.00 | 86 | 1015.6 |
| 20260905205531 | 25 | 121 | 0.0 | 1.6 | 0.00 | 0.00 | 0.00 | 85 | 1015.6 |
| 20260905205031 | 26 | 121 | 0.0 | 3.2 | 0.00 | 0.00 | 0.00 | 84 | 1015.6 |
| 20260905204531 | 26 | 127 | 0.0 | 3.2 | 0.00 | 0.00 | 0.00 | 84 | 1015.5 |
| 20260905204029 | 26 | 160 | 0.0 | 4.8 | 0.00 | 0.00 | 0.00 | 84 | 1015.5 |
| 20260905203529 | 26 | 164 | 0.0 | 8.0 | 0.00 | 0.00 | 0.00 | 84 | 1015.4 |
| 20260905203031 | 26 | 157 | 1.6 | 9.7 | 0.00 | 0.00 | 0.00 | 84 | 1015.4 |
| 20260905202529 | 26 | 142 | 1.6 | 9.7 | 0.00 | 0.00 | 0.00 | 84 | 1015.4 |
| 20260905202027 | 26 | 136 | 1.6 | 6.4 | 0.00 | 0.00 | 0.00 | 84 | 1015.3 |
| 20260905201527 | 26 | 130 | 0.0 | 6.4 | 0.00 | 0.00 | 0.00 | 84 | 1015.3 |
| 20260905201026 | 26 | 140 | 1.6 | 8.0 | 0.00 | 0.00 | 0.00 | 84 | 1015.2 |
| 20260905200528 | 26 | 117 | 3.2 | 8.0 | 0.00 | 0.00 | 0.00 | 84 | 1015.2 |
| 20260905200026 | 26 | 144 | 1.6 | 9.7 | 0.00 | 0.00 | 0.00 | 84 | 1015.1 |
| 20260905195524 | 26 | 157 | 3.2 | 9.7 | 0.00 | 0.00 | 0.00 | 84 | 1015.1 |
| 20260905195027 | 26 | 115 | 3.2 | 6.4 | 0.00 | 0.00 | 0.00 | 83 | 1015.1 |
| 20260905194524 | 27 | 161 | 1.6 | 11.3 | 0.00 | 0.00 | 0.00 | 82 | 1015.1 |
| 20260905194025 | 27 | 110 | 3.2 | 11.3 | 0.00 | 0.00 | 0.00 | 81 | 1015.0 |
| 20260905193522 | 27 | 155 | 1.6 | 9.7 | 0.00 | 0.00 | 0.00 | 79 | 1014.9 |
| 20260905193026 | 27 | 112 | 3.2 | 9.7 | 0.00 | 0.00 | 0.00 | 77 | 1014.9 |
| 20260905192521 | 27 | 143 | 3.2 | 8.0 | 0.00 | 0.00 | 0.00 | 75 | 1014.7 |
| 20260905192020 | 27 | 107 | 1.6 | 9.7 | 0.00 | 0.00 | 0.00 | 72 | 1014.7 |
| 20260905191520 | 27 | 146 | 3.2 | 9.7 | 0.00 | 0.00 | 0.00 | 70 | 1014.6 |
| 20260905191023 | 27 | 138 | 3.2 | 11.3 | 0.00 | 0.00 | 0.00 | 68 | 1014.5 |
| 20260905190523 | 27 | 167 | 0.0 | 8.0 | 0.00 | 0.00 | 0.00 | 67 | 1014.4 |
| 20260905190020 | 27 | 269 | 0.0 | 0.0 | 0.00 | 0.00 | 0.00 | 68 | 1014.4 |
| 20260905185519 | 27 | 269 | 0.0 | 0.0 | 0.00 | 0.00 | 0.00 | 67 | 1014.3 |
| 20260905185020 | 27 | 269 | 0.0 | 0.0 | 0.00 | 0.00 | 0.00 | 67 | 1014.2 |
| 20260905184520 | 27 | 269 | 0.0 | 0.0 | 0.00 | 0.00 | 0.00 | 67 | 1014.1 |
| 20260905184020 | 27 | 269 | 0.0 | 0.0 | 0.00 | 0.00 | 0.00 | 66 | 1014.0 |
| 20260905183520 | 27 | 269 | 0.0 | 0.0 | 0.00 | 0.00 | 0.00 | 67 | 1014.0 |
| 20260905183018 | 27 | 269 | 0.0 | 0.0 | 0.00 | 0.00 | 0.00 | 67 | 1013.8 |
| 20260905182521 | 27 | 269 | 0.0 | 0.0 | 0.00 | 0.00 | 0.00 | 67 | 1013.8 |
| 20260905182019 | 27 | 269 | 0.0 | 0.0 | 0.00 | 0.00 | 0.00 | 67 | 1013.7 |
| 20260905181518 | 27 | 269 | 0.0 | 0.0 | 0.00 | 0.00 | 0.00 | 67 | 1013.6 |
| 20260905181018 | 27 | 269 | 0.0 | 0.0 | 0.00 | 0.00 | 0.00 | 67 | 1013.5 |
| 20260905180519 | 27 | 269 | 0.0 | 0.0 | 0.00 | 0.00 | 0.00 | 67 | 1013.5 |
| 20260905180018 | 28 | 269 | 0.0 | 0.0 | 0.00 | 0.00 | 0.00 | 67 | 1013.5 |
| 20260905175518 | 28 | 269 | 0.0 | 0.0 | 0.00 | 0.00 | 0.00 | 65 | 1013.5 |
| 20260905175018 | 28 | 269 | 0.0 | 0.0 | 0.00 | 0.00 | 0.00 | 66 | 1013.5 |
| 20260905174524 | 28 | 269 | 0.0 | 0.0 | 0.00 | 0.00 | 0.00 | 65 | 1013.4 |
| 20260905174022 | 28 | 269 | 0.0 | 0.0 | 0.00 | 0.00 | 0.00 | 65 | 1013.4 |
| 20260905173518 | 28 | 269 | 0.0 | 0.0 | 0.00 | 0.00 | 0.00 | 65 | 1013.3 |
| 20260905173025 | 29 | 269 | 0.0 | 0.0 | 0.00 | 0.00 | 0.00 | 64 | 1013.3 |
| 20260905172517 | 29 | 269 | 0.0 | 0.0 | 0.00 | 0.00 | 0.00 | 64 | 1013.3 |
| 20260905172017 | 29 | 269 | 0.0 | 0.0 | 0.00 | 0.00 | 0.00 | 64 | 1013.2 |
| 20260905171529 | 29 | 269 | 0.0 | 0.0 | 0.00 | 0.00 | 0.00 | 67 | 1013.2 |
| 20260905171016 | 30 | 269 | 0.0 | 0.0 | 0.00 | 0.00 | 0.00 | 64 | 1013.2 |
| 20260905170517 | 30 | 269 | 0.0 | 0.0 | 0.00 | 0.00 | 0.00 | 62 | 1013.1 |
| 20260905170017 | 31 | 269 | 0.0 | 1.6 | 0.00 | 0.00 | 0.00 | 60 | 1013.1 |
| 20260905165520 | 31 | 269 | 0.0 | 1.6 | 0.00 | 0.00 | 0.00 | 58 | 1013.1 |
| 20260905165016 | 31 | 269 | 0.0 | 3.2 | 0.00 | 0.00 | 0.00 | 60 | 1013.1 |
| 20260905164516 | 32 | 269 | 0.0 | 3.2 | 0.00 | 0.00 | 0.00 | 55 | 1013.0 |
| 20260905164015 | 32 | 269 | 0.0 | 3.2 | 0.00 | 0.00 | 0.00 | 54 | 1013.0 |
| 20260905163516 | 32 | 269 | 0.0 | 3.2 | 0.00 | 0.00 | 0.00 | 52 | 1013.0 |
| 20260905163016 | 32 | 279 | 0.0 | 1.6 | 0.00 | 0.00 | 0.00 | 59 | 1013.0 |
| 20260905162518 | 32 | 279 | 0.0 | 3.2 | 0.00 | 0.00 | 0.00 | 53 | 1013.0 |
| 20260905162015 | 32 | 269 | 0.0 | 4.8 | 0.00 | 0.00 | 0.00 | 55 | 1012.9 |
| 20260905161515 | 32 | 268 | 0.0 | 4.8 | 0.00 | 0.00 | 0.00 | 52 | 1012.9 |
| 20260905161015 | 32 | 248 | 0.0 | 4.8 | 0.00 | 0.00 | 0.00 | 51 | 1012.9 |
| 20260905160514 | 32 | 246 | 0.0 | 4.8 | 0.00 | 0.00 | 0.00 | 52 | 1012.9 |
| 20260905160019 | 32 | 252 | 0.0 | 1.6 | 0.00 | 0.00 | 0.00 | 50 | 1012.9 |
| 20260905155514 | 32 | 290 | 0.0 | 3.2 | 0.00 | 0.00 | 0.00 | 54 | 1012.9 |
| 20260905155018 | 32 | 290 | 0.0 | 3.2 | 0.00 | 0.00 | 0.00 | 55 | 1012.8 |
| 20260905154514 | 32 | 290 | 0.0 | 6.4 | 0.00 | 0.00 | 0.00 | 53 | 1012.8 |
| 20260905154014 | 33 | 249 | 1.6 | 6.4 | 0.00 | 0.00 | 0.00 | 50 | 1012.7 |
| 20260905153514 | 33 | 198 | 0.0 | 3.2 | 0.00 | 0.00 | 0.00 | 51 | 1012.7 |
| 20260905153020 | 33 | 169 | 0.0 | 3.2 | 0.00 | 0.00 | 0.00 | 51 | 1012.8 |
| 20260905152513 | 32 | 272 | 0.0 | 4.8 | 0.00 | 0.00 | 0.00 | 50 | 1012.7 |
| 20260905152013 | 32 | 324 | 0.0 | 9.7 | 0.00 | 0.00 | 0.00 | 53 | 1012.6 |
| 20260905151513 | 32 | 259 | 3.2 | 9.7 | 0.00 | 0.00 | 0.00 | 52 | 1012.7 |
| 20260905151012 | 32 | 286 | 3.2 | 9.7 | 0.00 | 0.00 | 0.00 | 53 | 1012.7 |
| 20260905150512 | 32 | 323 | 3.2 | 6.4 | 0.00 | 0.00 | 0.00 | 54 | 1012.7 |
| 20260905150012 | 32 | 282 | 0.0 | 3.2 | 0.00 | 0.00 | 0.00 | 52 | 1012.7 |
| 20260905145512 | 32 | 286 | 0.0 | 3.2 | 0.00 | 0.00 | 0.00 | 49 | 1012.7 |
| 20260905145014 | 32 | 286 | 1.6 | 4.8 | 0.00 | 0.00 | 0.00 | 49 | 1012.8 |
| 20260905144513 | 33 | 229 | 1.6 | 11.3 | 0.00 | 0.00 | 0.00 | 50 | 1012.9 |
| 20260905144014 | 33 | 265 | 4.8 | 14.5 | 0.00 | 0.00 | 0.00 | 50 | 1013.0 |
| 20260905143511 | 32 | 232 | 1.6 | 14.5 | 0.00 | 0.00 | 0.00 | 51 | 1012.9 |
| 20260905143011 | 33 | 219 | 1.6 | 6.4 | 0.00 | 0.00 | 0.00 | 50 | 1012.9 |
| 20260905142510 | 32 | 302 | 1.6 | 9.7 | 0.00 | 0.00 | 0.00 | 49 | 1013.0 |
| 20260905142010 | 32 | 274 | 3.2 | 9.7 | 0.00 | 0.00 | 0.00 | 50 | 1013.0 |
| 20260905141510 | 32 | 286 | 3.2 | 8.0 | 0.00 | 0.00 | 0.00 | 50 | 1013.0 |
| 20260905141012 | 33 | 209 | 0.0 | 9.7 | 0.00 | 0.00 | 0.00 | 51 | 1013.0 |
| 20260905140509 | 32 | 245 | 3.2 | 11.3 | 0.00 | 0.00 | 0.00 | 51 | 1013.1 |
| 20260905140010 | 32 | 268 | 1.6 | 6.4 | 0.00 | 0.00 | 0.00 | 53 | 1013.1 |
| 20260905135508 | 32 | 327 | 1.6 | 8.0 | 0.00 | 0.00 | 0.00 | 53 | 1013.1 |
| 20260905135009 | 32 | 234 | 0.0 | 9.7 | 0.00 | 0.00 | 0.00 | 52 | 1013.2 |
| 20260905134508 | 32 | 302 | 4.8 | 9.7 | 0.00 | 0.00 | 0.00 | 52 | 1013.4 |
| 20260905134011 | 32 | 221 | 3.2 | 12.9 | 0.00 | 0.00 | 0.00 | 51 | 1013.3 |
| 20260905133506 | 32 | 317 | 3.2 | 12.9 | 0.00 | 0.00 | 0.00 | 55 | 1013.3 |
| 20260905133010 | 32 | 249 | 3.2 | 12.9 | 0.00 | 0.00 | 0.00 | 53 | 1013.4 |
| 20260905132507 | 32 | 219 | 4.8 | 12.9 | 0.00 | 0.00 | 0.00 | 51 | 1013.4 |
| 20260905132006 | 32 | 238 | 4.8 | 11.3 | 0.00 | 0.00 | 0.00 | 52 | 1013.5 |
| 20260905131504 | 32 | 266 | 1.6 | 8.0 | 0.00 | 0.00 | 0.00 | 55 | 1013.5 |
| 20260905131004 | 32 | 309 | 3.2 | 11.3 | 0.00 | 0.00 | 0.00 | 53 | 1013.5 |
| 20260905130505 | 32 | 252 | 3.2 | 11.3 | 0.00 | 0.00 | 0.00 | 52 | 1013.6 |
| 20260905130004 | 32 | 306 | 1.6 | 11.3 | 0.00 | 0.00 | 0.00 | 53 | 1013.7 |
| 20260905125504 | 32 | 322 | 4.8 | 14.5 | 0.00 | 0.00 | 0.00 | 53 | 1013.7 |
| 20260905125003 | 32 | 302 | 3.2 | 9.7 | 0.00 | 0.00 | 0.00 | 53 | 1013.9 |
| 20260905124503 | 32 | 234 | 3.2 | 8.0 | 0.00 | 0.00 | 0.00 | 53 | 1013.9 |
| 20260905124003 | 31 | 310 | 1.6 | 8.0 | 0.00 | 0.00 | 0.00 | 53 | 1013.9 |
| 20260905123503 | 31 | 346 | 3.2 | 12.9 | 0.00 | 0.00 | 0.00 | 55 | 1014.0 |
| 20260905123001 | 32 | 275 | 6.4 | 12.9 | 0.00 | 0.00 | 0.00 | 52 | 1014.0 |
| 20260905122505 | 31 | 321 | 3.2 | 11.3 | 0.00 | 0.00 | 0.00 | 55 | 1014.0 |
| 20260905122003 | 32 | 208 | 4.8 | 11.3 | 0.00 | 0.00 | 0.00 | 52 | 1014.0 |
| 20260905121502 | 31 | 265 | 4.8 | 12.9 | 0.00 | 0.00 | 0.00 | 52 | 1014.1 |
| 20260905121003 | 31 | 305 | 6.4 | 12.9 | 0.00 | 0.00 | 0.00 | 57 | 1014.2 |
| 20260905120502 | 32 | 309 | 3.2 | 16.1 | 0.00 | 0.00 | 0.00 | 53 | 1014.2 |
| 20260905120118 | 32 | 221 | 3.2 | 16.1 | 0.00 | 0.00 | 0.00 | 54 | 1014.1 |
| 20260905115600 | 31 | 233 | 6.4 | 16.1 | 0.00 | 0.00 | 0.00 | 55 | 1014.1 |
| 20260905115103 | 31 | 207 | 3.2 | 12.9 | 0.00 | 0.00 | 0.00 | 55 | 1014.3 |
| 20260905114559 | 31 | 330 | 3.2 | 11.3 | 0.00 | 0.00 | 0.00 | 55 | 1014.3 |